createdAt,value
2023-02-11T00:05:27.639Z,11.60
2023-02-11T00:10:31.594Z,25.47
2023-02-11T00:15:34.109Z,22.00
2023-02-11T00:20:36.567Z,26.57
2023-02-11T00:25:42.072Z,11.47
2023-02-11T00:30:45.087Z,17.90
2023-02-11T00:35:48.083Z,21.53
2023-02-11T00:40:52.323Z,15.50
2023-02-11T00:45:55.267Z,11.90
2023-02-11T00:50:57.947Z,23.77
2023-02-11T00:56:02.079Z,6.90
2023-02-11T01:01:04.947Z,8.10
2023-02-11T01:06:08.880Z,17.77
2023-02-11T01:11:15.323Z,8.88
2023-02-11T01:16:18.744Z,5.57
2023-02-11T01:21:21.364Z,11.80
2023-02-11T01:26:25.557Z,17.07
2023-02-11T01:31:28.021Z,15.27
2023-02-11T01:36:30.739Z,15.37
2023-02-11T01:41:34.919Z,14.47
2023-02-11T01:46:38.019Z,10.10
2023-02-11T01:51:42.367Z,17.17
2023-02-11T01:57:06.108Z,13.37
2023-02-11T02:02:10.709Z,20.37
2023-02-11T02:07:15.581Z,13.20
2023-02-11T02:12:19.523Z,9.77
2023-02-11T02:17:27.361Z,18.00
2023-02-11T02:22:38.521Z,18.10
2023-02-11T02:27:49.928Z,10.67
2023-02-11T02:32:58.162Z,7.33
2023-02-11T02:38:03.196Z,5.40
2023-02-11T02:43:06.083Z,16.70
2023-02-11T02:48:23.854Z,8.27
2023-02-11T02:53:33.208Z,8.83
2023-02-11T02:58:47.306Z,11.27
2023-02-11T03:03:57.091Z,9.25
2023-02-11T03:09:02.337Z,14.67
2023-02-11T03:14:05.724Z,8.70
2023-02-11T03:19:12.763Z,7.80
2023-02-11T03:24:17.535Z,9.30
2023-02-11T03:29:26.005Z,15.23
2023-02-11T03:34:31.521Z,8.37
2023-02-11T03:39:36.063Z,10.27
2023-02-11T03:44:41.406Z,10.63
2023-02-11T03:49:46.563Z,15.03
2023-02-11T03:54:50.580Z,1.20
2023-02-11T03:59:54.107Z,8.57
2023-02-11T04:04:58.555Z,11.07
2023-02-11T04:10:01.412Z,16.37
2023-02-11T04:15:03.919Z,10.13
2023-02-11T04:20:08.966Z,5.20
2023-02-11T04:25:11.703Z,4.67
2023-02-11T04:30:14.832Z,10.77
2023-02-11T04:35:18.733Z,7.97
2023-02-11T04:40:21.570Z,6.80
2023-02-11T04:45:24.452Z,17.00
2023-02-11T04:50:28.620Z,12.53
2023-02-11T04:55:31.500Z,11.07
2023-02-11T05:00:34.610Z,10.93
2023-02-11T05:05:40.616Z,13.73
2023-02-11T05:10:46.708Z,11.90
2023-02-11T05:15:50.110Z,10.90
2023-02-11T05:20:54.266Z,7.75
2023-02-11T05:25:56.888Z,7.05
2023-02-11T05:31:02.037Z,11.57
2023-02-11T05:36:07.307Z,10.83
2023-02-11T05:41:10.513Z,3.90
2023-02-11T05:46:13.243Z,7.77
2023-02-11T05:51:17.134Z,15.10
2023-02-11T05:56:19.753Z,5.20
2023-02-11T06:01:22.639Z,4.47
2023-02-11T06:06:26.568Z,3.53
2023-02-11T06:11:29.191Z,12.45
2023-02-11T06:16:31.803Z,8.77
2023-02-11T06:21:43.854Z,3.43
2023-02-11T06:26:46.870Z,7.63
2023-02-11T06:31:49.599Z,15.23
2023-02-11T06:36:53.564Z,14.03
2023-02-11T06:41:56.059Z,6.55
2023-02-11T06:46:58.574Z,7.07
2023-02-11T06:52:03.522Z,12.13
2023-02-11T06:57:06.312Z,12.73
2023-02-11T07:02:10.379Z,14.00
2023-02-11T07:07:14.501Z,11.68
2023-02-11T07:12:17.135Z,5.53
2023-02-11T07:17:20.009Z,7.13
2023-02-11T07:22:24.079Z,6.87
2023-02-11T07:27:26.764Z,10.07
2023-02-11T07:32:29.517Z,9.30
2023-02-11T07:37:34.442Z,11.93
2023-02-11T07:42:37.174Z,5.63
2023-02-11T07:47:39.822Z,17.73
2023-02-11T07:52:43.811Z,10.97
2023-02-11T07:57:46.456Z,5.10
2023-02-11T08:02:48.955Z,4.97
2023-02-11T08:07:53.344Z,2.30
2023-02-11T08:17:59.164Z,8.57
2023-02-11T08:23:03.718Z,13.27
2023-02-11T08:28:06.293Z,10.27
2023-02-11T08:33:08.985Z,12.70
2023-02-11T08:38:13.158Z,17.80
2023-02-11T08:43:15.886Z,10.60
2023-02-11T08:48:18.319Z,12.60
2023-02-11T08:53:22.327Z,15.40
2023-02-11T08:58:24.896Z,13.70
2023-02-11T09:03:27.509Z,18.60
2023-02-11T09:08:31.307Z,14.13
2023-02-11T09:13:34.188Z,10.88
2023-02-11T09:18:36.785Z,11.15
2023-02-11T09:23:43.723Z,16.67
2023-02-11T09:28:46.804Z,13.45
2023-02-11T09:33:50.370Z,11.50
2023-02-11T09:38:55.664Z,10.27
2023-02-11T09:43:59.544Z,15.45
2023-02-11T09:49:03.072Z,13.10
2023-02-11T09:54:13.065Z,14.38
2023-02-11T09:59:16.127Z,8.32
2023-02-11T10:04:24.184Z,15.82
2023-02-11T10:09:35.044Z,10.95
2023-02-11T10:14:45.655Z,8.68
2023-02-11T10:19:55.022Z,16.48
2023-02-11T10:25:00.936Z,18.90
2023-02-11T10:30:05.806Z,13.43
2023-02-11T10:35:15.199Z,17.40
2023-02-11T10:40:20.447Z,20.35
2023-02-11T10:45:26.007Z,15.30
2023-02-11T10:50:29.877Z,19.77
2023-02-11T10:55:33.892Z,20.05
2023-02-11T11:05:47.219Z,19.77
2023-02-11T11:11:05.255Z,19.15
2023-02-11T11:16:09.474Z,19.92
2023-02-11T11:21:14.823Z,22.23
2023-02-11T11:26:19.175Z,11.40
2023-02-11T11:31:23.721Z,15.23
2023-02-11T11:36:32.733Z,18.15
2023-02-11T11:41:36.542Z,18.73
2023-02-11T11:46:40.371Z,10.75
2023-02-11T11:56:52.058Z,16.98
2023-02-11T12:02:08.332Z,18.95
2023-02-11T12:07:15.402Z,17.95
2023-02-11T12:12:26.680Z,22.60
2023-02-11T12:17:36.690Z,13.43
2023-02-11T12:22:42.988Z,14.25
2023-02-11T12:27:51.518Z,14.63
2023-02-11T12:32:59.032Z,11.32
2023-02-11T12:38:16.092Z,18.38
2023-02-11T12:43:24.517Z,13.68
2023-02-11T12:48:35.898Z,16.00
2023-02-11T12:53:44.945Z,10.88
2023-02-11T12:58:51.596Z,15.90
2023-02-11T13:03:55.797Z,17.75
2023-02-11T13:09:01.334Z,15.75
2023-02-11T13:14:07.914Z,17.40
2023-02-11T13:19:16.808Z,17.23
2023-02-11T13:24:26.532Z,18.10
2023-02-11T13:29:34.539Z,17.23
2023-02-11T13:34:57.286Z,20.63
2023-02-11T13:40:00.700Z,22.02
2023-02-11T13:45:17.798Z,16.52
2023-02-11T13:50:22.495Z,16.60
2023-02-11T13:55:27.397Z,13.65
2023-02-11T14:00:32.893Z,17.05
2023-02-11T14:05:54.103Z,17.67
2023-02-11T14:10:57.647Z,15.95
2023-02-11T14:16:07.977Z,15.52
2023-02-11T14:21:16.947Z,18.20
2023-02-11T14:26:27.230Z,22.52
2023-02-11T14:31:35.651Z,13.68
2023-02-11T14:36:48.914Z,16.73
2023-02-11T14:41:52.143Z,17.23
2023-02-11T14:46:56.210Z,21.60
2023-02-11T14:52:04.988Z,18.63
2023-02-11T14:57:09.102Z,18.38
2023-02-11T15:07:16.485Z,19.67
2023-02-11T15:12:23.732Z,21.20
2023-02-11T15:17:28.880Z,21.33
2023-02-11T15:22:34.360Z,26.15
2023-02-11T15:27:41.337Z,24.10
2023-02-11T15:32:45.853Z,23.42
2023-02-11T15:37:50.733Z,22.23
2023-02-11T15:42:56.768Z,37.75
2023-02-11T15:48:03.036Z,23.92
2023-02-11T15:53:16.892Z,23.80
2023-02-11T15:58:19.967Z,22.50
2023-02-11T16:03:24.246Z,25.17
2023-02-11T16:13:33.653Z,29.73
2023-02-11T16:18:39.578Z,24.80
2023-02-11T16:23:43.087Z,28.80
2023-02-11T16:28:47.013Z,30.57
2023-02-11T16:33:49.504Z,25.92
2023-02-11T16:38:52.173Z,32.05
2023-02-11T16:43:57.630Z,24.45
2023-02-11T16:49:05.382Z,29.33
2023-02-11T16:54:08.571Z,34.50
2023-02-11T16:59:12.806Z,26.83
2023-02-11T17:09:20.357Z,27.10
2023-02-11T17:14:24.380Z,28.25
2023-02-11T17:19:26.976Z,27.95
2023-02-11T17:24:29.907Z,28.63
2023-02-11T17:29:33.901Z,26.88
2023-02-11T17:34:36.608Z,33.13
2023-02-11T17:39:39.894Z,31.95
2023-02-11T17:44:44.783Z,25.73
2023-02-11T17:49:47.530Z,22.95
2023-02-11T17:54:50.062Z,26.75
2023-02-11T17:59:54.089Z,32.75
2023-02-11T18:04:57.728Z,23.17
2023-02-11T18:10:00.488Z,24.13
2023-02-11T18:15:04.635Z,24.48
2023-02-11T18:20:08.228Z,23.27
2023-02-11T18:25:12.380Z,22.00
2023-02-11T18:30:17.669Z,24.10
2023-02-11T18:35:20.192Z,19.10
2023-02-11T18:40:23.107Z,26.60
2023-02-11T18:45:28.640Z,22.77
2023-02-11T18:50:31.387Z,22.75
2023-02-11T18:55:33.936Z,27.95
2023-02-11T19:00:39.203Z,22.98
2023-02-11T19:05:42.304Z,33.47
2023-02-11T19:10:46.079Z,21.77
2023-02-11T19:15:50.212Z,27.17
2023-02-11T19:25:55.385Z,30.20
2023-02-11T19:30:59.526Z,23.70
2023-02-11T19:36:06.245Z,23.05
2023-02-11T19:41:08.899Z,24.95
2023-02-11T19:46:12.973Z,27.83
2023-02-11T19:51:15.929Z,13.50
2023-02-11T19:56:20.796Z,27.80
2023-02-11T20:01:25.781Z,18.83
2023-02-11T20:06:29.208Z,29.58
2023-02-11T20:11:32.624Z,24.53
2023-02-11T20:16:48.151Z,20.83
2023-02-11T20:21:53.045Z,21.55
2023-02-11T20:26:56.422Z,18.33
2023-02-11T20:32:00.690Z,33.30
2023-02-11T20:37:04.137Z,15.80
2023-02-11T20:42:06.770Z,30.10
2023-02-11T20:47:10.681Z,29.08
2023-02-11T20:52:13.207Z,26.15
2023-02-11T20:57:16.159Z,27.38
2023-02-11T21:02:21.887Z,30.40
2023-02-11T21:07:29.153Z,28.10
2023-02-11T21:12:32.984Z,27.58
2023-02-11T21:17:36.750Z,27.58
2023-02-11T21:22:39.448Z,30.83
2023-02-11T21:27:42.054Z,38.45
2023-02-11T21:32:46.004Z,36.90
2023-02-11T21:37:48.950Z,30.02
2023-02-11T21:42:51.535Z,28.02
2023-02-11T21:47:55.419Z,25.92
2023-02-11T21:52:58.102Z,24.83
2023-02-11T21:58:00.570Z,30.08
2023-02-11T22:03:04.762Z,27.58
2023-02-11T22:08:07.214Z,27.30
2023-02-11T22:13:09.718Z,20.77
2023-02-11T22:18:13.555Z,25.40
2023-02-11T22:23:18.896Z,24.48
2023-02-11T22:28:21.710Z,22.25
2023-02-11T22:33:25.860Z,24.58
2023-02-11T22:38:28.540Z,26.33
2023-02-11T22:43:31.534Z,27.88
2023-02-11T22:48:35.949Z,24.50
2023-02-11T22:53:38.577Z,31.35
2023-02-11T22:58:41.002Z,27.73
2023-02-11T23:03:45.159Z,30.73
2023-02-11T23:08:48.158Z,30.13
2023-02-11T23:13:52.066Z,28.08
2023-02-11T23:18:55.970Z,30.45
2023-02-11T23:23:59.525Z,28.42
2023-02-11T23:29:02.036Z,27.07
2023-02-11T23:34:06.574Z,27.80
2023-02-11T23:39:09.029Z,26.52
2023-02-11T23:44:12.032Z,28.00
2023-02-11T23:49:16.097Z,27.27
2023-02-11T23:54:18.610Z,34.90
2023-02-11T23:59:21.480Z,27.95
